Hovedside
METAR-TAF:

METAR-TAF

Lufthavner :

Lewiston-Nez Perce County Airport

Lewiston, Idaho, USA

breddegrad: 46-22-29N, lengdegrad: 117-00-52W, høyde over havet: 438 m

Gjeldene værobservasjon

Denne rapporten ble laget for 52 minutter siden, klokken 22:56 UTC
Flau vind
Temperatur 29°C
Luftfuktighet 25%
Trykk 1017 hPa
Sikt: 16.1 km
Skyfri himmel

METAR: KLWS 212256Z 00000KT 10SM CLR 29/07 A3003 RMK AO2 SLP162 T02890072

Tid: 16:48 (23:48 UTC)

Varsel

Denne rapporten ble laget for 6 timer og 28 minutter siden, klokken 17:20 UTC
Varsel gyldig fra 21. klokken 18 UTC til 22. klokken 18 UTC
Vind 6 kt fra Øst-nordøst
Sikt: 10 km
Få skyer i en høyde av 8000 ft
Fra 22. klokken 0300 UTC
Vind 5 kt fra Sør-sørøst
Sikt: 10 km
Få skyer i en høyde av 8000 ft
Fra 22. klokken 1700 UTC
Vind 6 kt fra Øst-nordøst
Sikt: 10 km
Få skyer i en høyde av 8000 ft

TAF: KLWS 211720Z 2118/2218 06006KT P6SM FEW080 FM220300 16005KT P6SM FEW080 FM221700 07006KT P6SM FEW080

Værobservasjoner og værvarsel for over 4000 flyplasser (METAR- og TAF-rapporter).

Tilgjengelige stasjoner er representert av de røde og gule prikkene på kartet.

Hold musepekeren over prikken for å se navnet på stasjonen.

Klikk så for å se værobservasjoner og -varsler.

For å forandre kartet kan du klikke på den grønne knappen med svart kryss for å zoome inn, på den grønne knappen med strek for å zoome ut, eller på de grønne pilene for å se tilstøtende kart.


METAR-TAF: